Azalea Park, Florida
Current Conditions -  °F | °C
As of 4:53 AM on Monday 26 Jan 2015 (Local Time) from KORL Reporting Station
Broken Clouds Broken Clouds  
Wind Chill: 14°   Ceiling: 7500
Heat Index: 14°   Visibility: 10mi
Dew Point: 11°   Wind: 12mph
Humidity: 81%   Direction: 200°SSW
Pressure: 29.84"   Gusts: NA
Location:  28.5525°N, 81.3003°W
Report Text: KORL 260953Z AUTO 20010KT 10SM FEW055 BKN075 BKN090 14/11 A2984 RMK AO2 SLP107 T01440111
Loading
Personal Weather Stations






























Interactive Weather Map New forecast layout! Learn more

10-Day Weather Forecast

Advertisements
Track Severe Weather on mobile